FWKI/LLW METAR and TAF weather

Enter ICAO airport designator
Station Type Date Time Source
FWKI METAR 2021/09/20 04:00 UTC NOAA

FWKI 200400Z 15003KT CAVOK 11/10 Q1021 NOSIG


Station Type Date Time Source
FWKI Decoded METAR 2021/09/20 04:00 UTC NOAA

Lilongwe International Airport, Malawi (FWKI) 13-47S 033-46E 1229M
Sep 20, 2021 - 12:00 AM EDT / 2021.09.20 0400 UTC
Wind: from the SSE (150 degrees) at 3 MPH (3 KT):0
Visibility: greater than 7 mile(s):0
Temperature: 51 F (11 C)
Dew Point: 50 F (10 C)
Relative Humidity: 93%
Pressure (altimeter): 30.15 in. Hg (1021 hPa)
ob: FWKI 200400Z 15003KT CAVOK 11/10 Q1021 NOSIG
cycle: 4

Station Type Date Time Source
FWKI TAF 2021/09/20 06:12 UTC NOAA

TAF TAF FWKI 200400Z 2006/2112 15003KT CAVOK
BECMG 2008/2010 12005KT FEW025
FM201400 08010KT CAVOK

Example: see airport list